Time;durP1;ratioP1;P1;durP2;ratioP2;P2;SDS_P1;SDS_P2;PMS_P1;PMS_P2;Temp;Humidity;BMP_temperature;BMP_pressure;BME280_temperature;BME280_humidity;BME280_pressure;Samples;Min_cycle;Max_cycle;Signal;HPM_P1;HPM_P2
2022/08/12 00:43:35;;;;;;;;;;;19.80;99.90;;;;;;5005357;28;20065;-62
2022/08/12 00:48:47;;;;;;;9.02;7.05;;;19.70;99.90;;;;;;5018181;28;20529;-61
2022/08/12 00:51:13;;;;;;;8.82;6.70;;;19.60;99.90;;;;;;5016816;28;20045;-61
2022/08/12 00:53:39;;;;;;;9.23;7.05;;;19.60;99.90;;;;;;5017817;28;20052;-61
2022/08/12 00:56:06;;;;;;;10.40;6.45;;;19.60;99.90;;;;;;5015311;28;20498;-61
2022/08/12 00:58:33;;;;;;;7.05;6.07;;;19.60;99.90;;;;;;5013261;28;20129;-61
2022/08/12 01:01:07;;;;;;;10.57;6.50;;;19.70;99.90;;;;;;5012620;28;20499;-61
2022/08/12 01:11:54;;;;;;;;;;;19.70;99.90;;;;;;5013660;28;20118;-61
2022/08/12 01:14:24;;;;;;;9.93;5.95;;;19.70;99.90;;;;;;5010564;28;20017;-64
2022/08/12 01:16:51;;;;;;;10.93;5.68;;;19.70;99.90;;;;;;5009790;28;20428;-60
2022/08/12 01:19:20;;;;;;;7.63;5.38;;;19.70;99.90;;;;;;5022583;28;20479;-61
2022/08/12 01:22:10;;;;;;;6.70;5.45;;;19.70;99.90;;;;;;5017549;28;20045;-61
2022/08/12 01:25:19;;;;;;;6.28;5.47;;;19.70;99.90;;;;;;5012159;28;20045;-61
2022/08/12 01:27:48;;;;;;;7.03;5.25;;;19.70;99.90;;;;;;4977356;28;20156;-61
2022/08/12 01:30:15;;;;;;;7.53;5.35;;;19.70;99.90;;;;;;5012014;28;20651;-61
2022/08/12 01:32:41;;;;;;;6.57;5.38;;;19.70;99.90;;;;;;5017354;28;20049;-62
2022/08/12 01:35:10;;;;;;;7.43;5.32;;;19.70;99.90;;;;;;5009892;28;20034;-62
2022/08/12 01:37:46;;;;;;;8.30;5.32;;;19.70;99.90;;;;;;5017040;28;20042;-62
2022/08/12 01:40:15;;;;;;;8.00;5.50;;;19.70;99.90;;;;;;5017876;28;20048;-61
2022/08/12 01:42:45;;;;;;;5.60;5.00;;;19.60;99.90;;;;;;5010981;28;20107;-62
2022/08/12 01:45:12;;;;;;;12.38;6.07;;;19.60;99.90;;;;;;5016771;28;20121;-62
2022/08/12 01:48:01;;;;;;;8.85;5.32;;;19.60;99.90;;;;;;5014146;28;20088;-63
2022/08/12 01:51:08;;;;;;;7.93;5.45;;;19.60;99.90;;;;;;5016014;28;20077;-62
2022/08/12 01:53:56;;;;;;;7.55;5.63;;;19.60;99.90;;;;;;5006995;28;20050;-62
2022/08/12 01:56:24;;;;;;;8.43;5.47;;;19.60;99.90;;;;;;5007212;28;20050;-61
2022/08/12 02:01:41;;;;;;;7.80;5.65;;;19.50;99.90;;;;;;5013288;28;20072;-61
2022/08/12 02:13:20;;;;;;;8.00;5.70;;;19.40;99.90;;;;;;5015407;28;20050;-62
2022/08/12 02:16:01;;;;;;;8.20;5.93;;;19.30;99.90;;;;;;5009636;28;20046;-63
2022/08/12 02:19:01;;;;;;;10.93;5.90;;;19.30;99.90;;;;;;5019419;28;20046;-65
2022/08/12 02:21:45;;;;;;;9.95;6.07;;;19.30;99.90;;;;;;5007808;28;20080;-64
2022/08/12 02:24:17;;;;;;;14.43;6.57;;;19.30;99.90;;;;;;5015401;28;20085;-61
2022/08/12 02:26:47;;;;;;;10.90;6.10;;;19.30;99.90;;;;;;5012218;28;20104;-60
2022/08/12 02:29:13;;;;;;;8.65;6.30;;;19.30;99.90;;;;;;5013317;28;20384;-61
2022/08/12 02:31:42;;;;;;;9.82;6.40;;;19.20;99.90;;;;;;5010199;28;20100;-61
2022/08/12 02:34:08;;;;;;;9.63;6.45;;;19.20;99.90;;;;;;5014707;28;20033;-62
2022/08/12 02:36:37;;;;;;;10.93;6.13;;;19.10;99.90;;;;;;5010262;28;20345;-62
2022/08/12 02:39:05;;;;;;;8.57;6.32;;;19.10;99.90;;;;;;4994702;28;20051;-62
2022/08/12 02:41:33;;;;;;;10.13;6.65;;;19.10;99.90;;;;;;5014750;28;20129;-63
2022/08/12 02:44:01;;;;;;;9.27;5.78;;;19.10;99.90;;;;;;5013131;28;20056;-61
2022/08/12 02:46:29;;;;;;;11.15;6.18;;;19.10;99.90;;;;;;5013197;28;20089;-61
2022/08/12 02:49:03;;;;;;;7.38;5.97;;;19.00;99.90;;;;;;5014312;28;20084;-61
2022/08/12 02:51:32;;;;;;;7.78;5.63;;;19.00;99.90;;;;;;5017320;28;20240;-61
2022/08/12 02:54:02;;;;;;;7.68;6.18;;;18.90;99.90;;;;;;5022280;28;20049;-62
2022/08/12 02:56:29;;;;;;;7.63;6.55;;;19.00;99.90;;;;;;5013706;28;20081;-61
2022/08/12 02:58:59;;;;;;;8.90;6.07;;;19.00;99.90;;;;;;5020584;28;20121;-62
2022/08/12 03:01:33;;;;;;;9.05;6.50;;;18.90;99.90;;;;;;5008177;28;20081;-60
2022/08/12 03:04:05;;;;;;;7.28;6.18;;;18.90;99.90;;;;;;5018175;28;20046;-61
2022/08/12 03:06:37;;;;;;;10.38;6.90;;;18.90;99.90;;;;;;5005857;28;20197;-61
2022/08/12 03:09:03;;;;;;;11.43;7.10;;;18.80;99.90;;;;;;5018111;28;20046;-61
2022/08/12 03:11:57;;;;;;;9.65;6.60;;;18.80;99.90;;;;;;5014787;28;20109;-61
2022/08/12 03:14:28;;;;;;;9.70;7.35;;;18.80;99.90;;;;;;5020083;28;20044;-61
2022/08/12 03:17:10;;;;;;;7.80;6.53;;;18.70;99.90;;;;;;5017467;28;20208;-61
2022/08/12 03:19:43;;;;;;;10.32;6.57;;;18.70;99.90;;;;;;5016611;28;20045;-63
2022/08/12 03:22:14;;;;;;;9.90;6.68;;;18.70;99.90;;;;;;5015724;28;20104;-61
2022/08/12 03:24:44;;;;;;;12.27;7.18;;;18.60;99.90;;;;;;5018817;28;20037;-62
2022/08/12 03:27:12;;;;;;;9.57;7.15;;;18.60;99.90;;;;;;5010347;28;20121;-61
2022/08/12 03:29:40;;;;;;;11.52;7.20;;;18.60;99.90;;;;;;5019058;28;20133;-62
2022/08/12 03:32:07;;;;;;;9.10;6.30;;;18.60;99.90;;;;;;5017680;28;20053;-61
2022/08/12 03:34:36;;;;;;;9.20;6.97;;;18.50;99.90;;;;;;5016566;28;20112;-61
2022/08/12 03:37:04;;;;;;;8.02;6.93;;;18.50;99.90;;;;;;5014742;28;20042;-61
2022/08/12 03:42:09;;;;;;;8.68;6.63;;;18.50;99.90;;;;;;5013487;28;20514;-60
2022/08/12 04:01:25;;;;;;;12.07;8.13;;;18.20;99.90;;;;;;5011174;28;20137;-60
2022/08/12 04:03:51;;;;;;;9.63;6.75;;;18.30;99.90;;;;;;5009898;28;20103;-61
2022/08/12 04:06:25;;;;;;;9.65;7.45;;;18.30;99.90;;;;;;5009852;28;20526;-61
2022/08/12 04:08:55;;;;;;;8.57;7.05;;;18.30;99.90;;;;;;5010699;28;20038;-61
2022/08/12 04:14:10;;;;;;;12.73;7.05;;;18.20;99.90;;;;;;5005368;28;20078;-61
2022/08/12 04:16:38;;;;;;;12.07;7.22;;;18.20;99.90;;;;;;5011124;28;20042;-61
2022/08/12 04:19:05;;;;;;;11.57;7.03;;;18.20;99.90;;;;;;5010678;28;20425;-61
2022/08/12 04:21:35;;;;;;;13.48;7.38;;;18.20;99.90;;;;;;5010228;28;20400;-61
2022/08/12 04:24:01;;;;;;;9.70;7.00;;;18.20;99.90;;;;;;5010503;28;20133;-61
2022/08/12 04:26:27;;;;;;;11.55;7.25;;;18.20;99.90;;;;;;5014398;28;20092;-62
2022/08/12 04:28:58;;;;;;;8.35;7.15;;;18.20;99.90;;;;;;5016918;28;20211;-61
2022/08/12 04:31:49;;;;;;;8.57;6.80;;;18.20;99.90;;;;;;5012594;28;20046;-62
2022/08/12 04:34:16;;;;;;;9.85;7.50;;;18.20;99.90;;;;;;5004401;28;20108;-61
2022/08/12 04:36:42;;;;;;;9.85;7.43;;;18.20;99.90;;;;;;5010361;28;20137;-62
2022/08/12 04:39:10;;;;;;;9.05;6.63;;;18.20;99.90;;;;;;5010418;28;20046;-61
2022/08/12 04:41:37;;;;;;;11.50;6.60;;;18.20;99.90;;;;;;5009383;28;20395;-61
2022/08/12 04:44:05;;;;;;;12.18;6.88;;;18.20;99.90;;;;;;5010191;28;20104;-61
2022/08/12 04:46:30;;;;;;;10.18;6.60;;;18.30;99.90;;;;;;5009238;28;20062;-61
2022/08/12 04:48:56;;;;;;;8.63;6.65;;;18.30;99.90;;;;;;5008035;28;20581;-61
2022/08/12 04:51:22;;;;;;;16.23;7.20;;;18.30;99.90;;;;;;5010472;28;20479;-61
2022/08/12 04:53:49;;;;;;;9.70;6.72;;;18.30;99.90;;;;;;5010299;28;20041;-64
2022/08/12 04:56:15;;;;;;;10.82;7.53;;;18.30;99.90;;;;;;5008058;28;20120;-61
2022/08/12 04:58:41;;;;;;;9.23;7.05;;;18.30;99.90;;;;;;5009372;28;20053;-61
2022/08/12 05:01:09;;;;;;;12.02;7.20;;;18.30;99.90;;;;;;5008643;28;20037;-61
2022/08/12 05:03:36;;;;;;;8.52;7.03;;;18.30;99.90;;;;;;5009459;28;20419;-60
2022/08/12 05:06:03;;;;;;;10.95;6.80;;;18.40;99.90;;;;;;5009819;28;20038;-61
2022/08/12 05:08:29;;;;;;;8.07;6.07;;;18.40;99.90;;;;;;5010432;28;20096;-61
2022/08/12 05:10:56;;;;;;;12.25;6.90;;;18.40;99.90;;;;;;5009303;28;20507;-62
2022/08/12 05:13:26;;;;;;;9.13;6.68;;;18.40;99.90;;;;;;4992506;28;20115;-61
2022/08/12 05:15:52;;;;;;;8.85;6.32;;;18.50;99.90;;;;;;5009458;28;20487;-64
2022/08/12 05:18:18;;;;;;;12.50;6.57;;;18.50;99.90;;;;;;5008556;28;20057;-61
2022/08/12 05:20:44;;;;;;;8.68;6.30;;;18.60;99.90;;;;;;5010078;28;20083;-61
2022/08/12 05:23:12;;;;;;;8.68;6.82;;;18.60;99.90;;;;;;4991865;28;20129;-61
2022/08/12 05:25:39;;;;;;;8.95;5.70;;;18.80;99.90;;;;;;5014506;28;20111;-62
2022/08/12 05:28:05;;;;;;;11.65;6.38;;;18.90;99.90;;;;;;5009899;28;20077;-62
2022/08/12 05:30:35;;;;;;;8.35;5.70;;;19.00;99.90;;;;;;5012955;28;20432;-63
2022/08/12 05:33:05;;;;;;;8.05;5.90;;;19.10;99.90;;;;;;5014261;28;20048;-62
2022/08/12 05:35:41;;;;;;;8.48;5.90;;;19.30;99.90;;;;;;5008019;28;20041;-63
2022/08/12 05:40:58;;;;;;;13.40;6.00;;;20.20;99.90;;;;;;5008449;28;20050;-62
2022/08/12 05:43:25;;;;;;;7.22;4.68;;;21.30;99.90;;;;;;5009981;28;20065;-62
2022/08/12 05:45:51;;;;;;;8.45;4.75;;;22.30;99.90;;;;;;5008236;28;20042;-62
2022/08/12 05:48:17;;;;;;;6.43;4.30;;;23.20;99.90;;;;;;4991897;28;20045;-63
2022/08/12 05:50:44;;;;;;;8.25;4.35;;;24.00;99.90;;;;;;5009433;28;20494;-64
2022/08/12 05:53:10;;;;;;;6.55;4.80;;;24.80;99.90;;;;;;5008877;28;20050;-62
2022/08/12 05:55:37;;;;;;;7.82;4.20;;;25.50;99.90;;;;;;5016073;28;20056;-61
2022/08/12 05:58:04;;;;;;;5.13;3.97;;;26.30;99.90;;;;;;5000657;28;20049;-61
2022/08/12 06:00:31;;;;;;;6.10;4.20;;;26.90;99.90;;;;;;5003373;28;20426;-61
2022/08/12 06:03:04;;;;;;;7.80;4.05;;;27.40;97.80;;;;;;4996993;28;20050;-63
2022/08/12 06:05:34;;;;;;;;;;;28.10;96.40;;;;;;5009348;28;20046;-62
2022/08/12 06:08:05;;;;;;;6.13;3.92;;;28.70;94.10;;;;;;5014325;28;20023;-62
2022/08/12 06:10:32;;;;;;;6.05;4.10;;;29.20;96.50;;;;;;5010808;28;20069;-62
2022/08/12 06:13:01;;;;;;;5.85;3.88;;;29.40;96.00;;;;;;5009215;28;20128;-65
2022/08/12 06:15:27;;;;;;;6.10;3.53;;;29.90;94.30;;;;;;5009458;28;20562;-63
2022/08/12 06:17:53;;;;;;;5.93;3.35;;;30.10;94.80;;;;;;5009406;28;20045;-62
2022/08/12 06:20:18;;;;;;;5.07;3.38;;;30.20;94.50;;;;;;5010289;28;20042;-62
2022/08/12 06:22:49;;;;;;;9.95;3.53;;;30.50;94.50;;;;;;5010146;28;20049;-62
2022/08/12 06:25:17;;;;;;;8.27;3.38;;;30.70;93.70;;;;;;5027014;28;20052;-62
2022/08/12 06:27:48;;;;;;;4.13;3.15;;;31.00;93.30;;;;;;5015081;28;20069;-62
2022/08/12 06:30:19;;;;;;;4.70;3.58;;;31.20;91.80;;;;;;5018497;28;20509;-63
2022/08/12 06:32:46;;;;;;;6.82;3.20;;;31.60;91.70;;;;;;5008422;28;20481;-63
2022/08/12 06:35:13;;;;;;;6.43;2.72;;;31.70;91.60;;;;;;5018657;28;20126;-63
2022/08/12 06:37:44;;;;;;;6.03;3.38;;;31.90;91.70;;;;;;5019271;28;20495;-62
2022/08/12 06:40:11;;;;;;;5.65;3.10;;;32.00;89.30;;;;;;5017169;28;20080;-62
2022/08/12 06:42:53;;;;;;;4.32;3.10;;;32.00;86.90;;;;;;5018937;28;20042;-62
2022/08/12 06:45:19;;;;;;;4.88;2.90;;;32.00;88.60;;;;;;5011347;28;20061;-62
2022/08/12 06:47:47;;;;;;;7.70;2.97;;;32.00;88.80;;;;;;5016087;28;20049;-63
2022/08/12 06:50:17;;;;;;;5.35;2.90;;;32.00;87.10;;;;;;5014475;28;20054;-61
2022/08/12 06:52:43;;;;;;;4.78;2.55;;;32.10;88.20;;;;;;5014146;28;20124;-62
2022/08/12 06:55:19;;;;;;;4.75;2.75;;;32.10;86.00;;;;;;5014186;28;20049;-62
2022/08/12 06:58:00;;;;;;;6.95;2.85;;;32.00;87.90;;;;;;5022760;28;20111;-61
2022/08/12 07:00:29;;;;;;;6.20;2.45;;;31.90;86.70;;;;;;5012071;28;20182;-62
2022/08/12 07:02:56;;;;;;;7.47;2.72;;;32.00;87.30;;;;;;5015546;28;20088;-61
2022/08/12 07:05:26;;;;;;;4.72;2.80;;;32.40;87.60;;;;;;5012204;28;20107;-61
2022/08/12 07:07:57;;;;;;;5.97;2.30;;;32.80;86.30;;;;;;5020084;28;20048;-62
2022/08/12 07:10:23;;;;;;;4.03;2.25;;;33.30;83.40;;;;;;5011991;28;20042;-62
2022/08/12 07:12:55;;;;;;;5.28;2.67;;;33.50;82.60;;;;;;5015811;28;20104;-62
2022/08/12 07:15:24;;;;;;;4.23;2.40;;;33.70;84.80;;;;;;5008953;28;20128;-62
2022/08/12 07:18:18;;;;;;;5.30;2.80;;;33.80;84.40;;;;;;5011663;28;20124;-62
2022/08/12 07:20:47;;;;;;;6.90;2.50;;;33.70;83.20;;;;;;5008524;28;20054;-62
2022/08/12 07:23:14;;;;;;;6.82;2.40;;;33.80;83.70;;;;;;5009685;28;20053;-62
2022/08/12 07:25:41;;;;;;;2.78;2.05;;;33.90;84.00;;;;;;5011607;28;20099;-61
2022/08/12 07:28:09;;;;;;;5.50;2.33;;;34.10;82.60;;;;;;5016178;28;20062;-61
2022/08/12 07:30:38;;;;;;;5.50;2.20;;;34.40;83.30;;;;;;5020185;28;20120;-62
2022/08/12 07:33:08;;;;;;;5.60;2.42;;;34.40;79.60;;;;;;5014185;28;20475;-61
2022/08/12 07:35:44;;;;;;;4.30;2.25;;;34.50;80.30;;;;;;5010169;28;20180;-62
2022/08/12 07:38:23;;;;;;;5.15;2.33;;;34.70;81.00;;;;;;5015090;28;20349;-65
2022/08/12 07:40:51;;;;;;;6.18;2.33;;;34.90;80.70;;;;;;5007752;28;20402;-62
2022/08/12 07:43:17;;;;;;;5.63;2.20;;;35.10;80.90;;;;;;5016479;28;20128;-62
2022/08/12 07:45:44;;;;;;;4.40;1.95;;;35.50;80.10;;;;;;5007455;28;20204;-62
2022/08/12 07:48:10;;;;;;;4.97;2.03;;;35.50;79.30;;;;;;5009753;28;20505;-62
2022/08/12 07:50:36;;;;;;;7.93;2.10;;;35.50;79.00;;;;;;5011733;28;20128;-63
2022/08/12 07:53:02;;;;;;;5.95;2.17;;;35.60;78.20;;;;;;5011255;28;20061;-63
2022/08/12 07:55:28;;;;;;;5.28;2.05;;;35.90;78.00;;;;;;5009789;28;20042;-62
2022/08/12 07:57:58;;;;;;;5.45;2.33;;;35.90;78.00;;;;;;5007257;28;20057;-62
2022/08/12 08:00:29;;;;;;;5.57;2.10;;;36.10;77.90;;;;;;5006408;28;20044;-63
2022/08/12 08:02:55;;;;;;;4.40;2.15;;;36.40;77.30;;;;;;5011904;28;20592;-61
2022/08/12 08:05:22;;;;;;;6.05;2.40;;;36.70;76.20;;;;;;5010982;28;20137;-62
2022/08/12 08:07:49;;;;;;;8.63;2.17;;;36.80;77.00;;;;;;5011784;28;20096;-62
2022/08/12 08:10:15;;;;;;;4.45;1.95;;;37.10;76.40;;;;;;4993752;28;20041;-65
2022/08/12 08:12:53;;;;;;;5.05;2.05;;;37.50;75.80;;;;;;5011677;28;20045;-63
2022/08/12 08:15:25;;;;;;;4.72;2.13;;;37.70;73.70;;;;;;5011117;28;20124;-62
2022/08/12 08:18:06;;;;;;;7.25;2.00;;;38.20;74.40;;;;;;5009317;28;20411;-64
2022/08/12 08:20:36;;;;;;;3.70;2.05;;;38.40;72.10;;;;;;5010827;28;20046;-62
2022/08/12 08:23:06;;;;;;;4.30;1.92;;;38.30;71.00;;;;;;5010640;28;20045;-61
2022/08/12 08:25:37;;;;;;;4.45;1.88;;;38.60;71.90;;;;;;5017070;28;20111;-63
2022/08/12 08:28:11;;;;;;;6.90;1.80;;;38.70;72.80;;;;;;5006904;28;20061;-62
2022/08/12 08:30:41;;;;;;;2.78;1.95;;;38.90;70.60;;;;;;5009057;28;20640;-64
2022/08/12 08:33:10;;;;;;;3.85;1.73;;;38.90;70.50;;;;;;5011162;28;20042;-62
2022/08/12 08:35:41;;;;;;;4.70;1.90;;;39.10;71.40;;;;;;5010343;28;20041;-63
2022/08/12 08:38:09;;;;;;;4.10;2.08;;;38.90;71.10;;;;;;5010315;28;20125;-61
2022/08/12 08:43:21;;;;;;;4.20;2.20;;;38.80;71.40;;;;;;5007027;28;20494;-61
2022/08/12 08:45:47;;;;;;;3.13;1.88;;;38.90;70.80;;;;;;5008631;28;20044;-62
2022/08/12 08:48:13;;;;;;;4.97;1.95;;;39.30;71.30;;;;;;5010333;28;20124;-62
2022/08/12 08:50:39;;;;;;;4.22;1.83;;;39.40;69.30;;;;;;5009907;28;20637;-60
2022/08/12 08:53:07;;;;;;;2.65;1.88;;;39.50;70.00;;;;;;5010721;28;20130;-62
2022/08/12 08:55:36;;;;;;;5.60;2.20;;;39.30;70.00;;;;;;5008843;28;20045;-62
2022/08/12 08:58:02;;;;;;;3.88;2.03;;;39.20;69.40;;;;;;5010358;28;20038;-62
2022/08/12 09:00:29;;;;;;;6.45;2.10;;;39.00;68.30;;;;;;5009682;28;20108;-62
2022/08/12 09:02:54;;;;;;;4.25;2.10;;;38.70;68.60;;;;;;5010288;28;20510;-62
2022/08/12 09:05:20;;;;;;;6.32;2.10;;;38.70;68.70;;;;;;5018781;28;20041;-63
2022/08/12 09:07:50;;;;;;;3.25;2.03;;;38.50;68.80;;;;;;5018632;28;20443;-62
2022/08/12 09:10:19;;;;;;;6.32;2.10;;;38.40;68.20;;;;;;5016322;28;20058;-62
2022/08/12 09:15:31;;;;;;;3.65;1.98;;;38.30;67.50;;;;;;5019065;28;20048;-62
2022/08/12 09:17:58;;;;;;;5.72;2.20;;;38.40;67.60;;;;;;5014196;28;20041;-61
2022/08/12 09:20:32;;;;;;;5.25;1.92;;;38.50;68.00;;;;;;5009047;28;20084;-64
2022/08/12 09:23:00;;;;;;;5.10;2.00;;;38.70;68.30;;;;;;5010552;28;20525;-61
2022/08/12 09:25:30;;;;;;;7.50;1.92;;;38.60;68.00;;;;;;5009886;28;20046;-62
2022/08/12 09:27:57;;;;;;;3.55;1.80;;;38.60;68.60;;;;;;5012162;28;20057;-61
2022/08/12 09:30:23;;;;;;;2.83;1.70;;;38.70;68.00;;;;;;5012039;28;20049;-63
2022/08/12 09:32:49;;;;;;;4.50;2.08;;;38.80;67.60;;;;;;5005959;28;20124;-61
2022/08/12 09:35:30;;;;;;;7.55;1.90;;;38.80;66.90;;;;;;5010354;28;20042;-61
2022/08/12 09:37:56;;;;;;;7.00;2.00;;;38.80;65.70;;;;;;5002895;28;20057;-61
2022/08/12 09:40:24;;;;;;;4.30;2.03;;;38.70;66.20;;;;;;5008475;28;20092;-62
2022/08/12 09:45:34;;;;;;;5.13;2.17;;;38.30;65.80;;;;;;5007469;28;20048;-61
2022/08/12 09:48:03;;;;;;;4.68;1.80;;;37.70;65.50;;;;;;5002480;28;20045;-61
2022/08/12 09:50:30;;;;;;;6.80;1.90;;;37.10;64.50;;;;;;5003633;28;20056;-61
2022/08/12 09:53:17;;;;;;;3.78;1.98;;;36.40;65.20;;;;;;5008772;28;20057;-61
2022/08/12 09:55:47;;;;;;;2.70;1.80;;;35.60;65.90;;;;;;5004515;28;20103;-61
2022/08/12 09:58:16;;;;;;;3.50;2.17;;;35.30;65.70;;;;;;5004405;28;20039;-61
2022/08/12 10:00:43;;;;;;;4.00;2.20;;;35.00;66.00;;;;;;5005612;28;20038;-62
2022/08/12 10:03:11;;;;;;;5.63;2.20;;;;;;;;;;5010142;28;20038;-62
2022/08/12 10:05:45;;;;;;;5.03;2.20;;;34.70;66.40;;;;;;5012515;28;20475;-63
2022/08/12 10:08:13;;;;;;;4.85;2.38;;;34.00;67.50;;;;;;5007955;28;20046;-62
2022/08/12 10:13:41;;;;;;;5.32;2.20;;;33.90;66.90;;;;;;5014088;28;20058;-65
2022/08/12 10:16:27;;;;;;;3.55;1.90;;;33.80;67.00;;;;;;5011790;28;20133;-62
2022/08/12 10:19:01;;;;;;;5.22;2.30;;;33.60;67.10;;;;;;5017821;28;20129;-62
2022/08/12 10:21:30;;;;;;;5.60;2.17;;;33.50;67.80;;;;;;5000381;28;20096;-62
2022/08/12 10:23:56;;;;;;;5.47;2.13;;;33.40;68.30;;;;;;5007310;28;20053;-62
2022/08/12 10:31:53;;;;;;;3.72;2.03;;;33.20;67.80;;;;;;5018031;28;21510;-63
2022/08/12 10:34:21;;;;;;;5.15;2.08;;;33.20;68.10;;;;;;5015814;28;20041;-61
2022/08/12 10:36:49;;;;;;;3.83;2.00;;;33.20;68.10;;;;;;5018354;28;20737;-61
2022/08/12 10:39:17;;;;;;;3.80;1.92;;;33.10;67.50;;;;;;5021529;28;20061;-62
2022/08/12 10:44:32;;;;;;;5.10;2.28;;;32.90;67.10;;;;;;5012230;28;20053;-61
2022/08/12 10:46:58;;;;;;;3.47;2.00;;;33.00;67.70;;;;;;5017399;28;20088;-61
2022/08/12 10:49:30;;;;;;;7.25;2.10;;;33.10;67.50;;;;;;5018305;28;20054;-61
2022/08/12 10:51:57;;;;;;;4.63;1.90;;;33.30;67.60;;;;;;5014031;28;20355;-64
2022/08/12 10:54:26;;;;;;;6.68;2.10;;;33.20;67.20;;;;;;5013184;28;20085;-62
2022/08/12 10:56:53;;;;;;;3.10;2.40;;;33.20;67.50;;;;;;5013600;28;20100;-61
2022/08/12 10:59:23;;;;;;;6.47;2.10;;;33.10;67.60;;;;;;5021985;28;20041;-61
2022/08/12 11:01:51;;;;;;;5.93;2.00;;;33.10;67.20;;;;;;5015974;28;20049;-61
2022/08/12 11:04:17;;;;;;;3.03;1.90;;;33.00;67.30;;;;;;5017129;28;20045;-61
2022/08/12 11:06:47;;;;;;;4.30;1.90;;;32.90;66.40;;;;;;5023910;28;20473;-61
2022/08/12 11:09:31;;;;;;;4.22;2.17;;;32.80;66.50;;;;;;5011479;28;20037;-62
2022/08/12 11:12:05;;;;;;;3.55;2.17;;;32.70;66.60;;;;;;5008621;28;20141;-61
2022/08/12 11:14:33;;;;;;;6.90;2.30;;;32.60;65.90;;;;;;5006850;28;20426;-61
2022/08/12 11:17:00;;;;;;;3.97;2.20;;;32.50;66.30;;;;;;5011092;28;20490;-62
2022/08/12 11:19:27;;;;;;;5.45;2.22;;;32.60;66.00;;;;;;5011083;28;20046;-61
2022/08/12 11:21:54;;;;;;;3.75;2.10;;;32.80;66.00;;;;;;5011644;28;20050;-60
2022/08/12 11:24:23;;;;;;;6.47;1.88;;;32.70;65.30;;;;;;5011799;28;20061;-62
2022/08/12 11:26:50;;;;;;;7.10;2.30;;;32.70;65.50;;;;;;5013386;28;20436;-61
2022/08/12 11:29:22;;;;;;;3.47;2.10;;;32.50;65.80;;;;;;5009924;28;20111;-61
2022/08/12 11:31:48;;;;;;;3.40;1.90;;;32.40;65.80;;;;;;5020194;28;20054;-62
2022/08/12 11:34:15;;;;;;;5.82;2.20;;;32.50;66.10;;;;;;5016806;28;20041;-62
2022/08/12 11:36:52;;;;;;;5.38;2.10;;;32.50;65.90;;;;;;5018742;28;20058;-64
2022/08/12 11:39:18;;;;;;;6.20;2.20;;;32.60;65.40;;;;;;5008423;28;20073;-61
2022/08/12 11:41:44;;;;;;;2.90;2.05;;;32.50;64.90;;;;;;5017891;28;20061;-64
2022/08/12 11:44:10;;;;;;;8.45;1.95;;;32.40;65.50;;;;;;5012923;28;20054;-61
2022/08/12 11:46:37;;;;;;;3.85;2.00;;;32.40;65.50;;;;;;5011986;28;20057;-61
2022/08/12 11:49:04;;;;;;;3.50;1.98;;;32.50;65.30;;;;;;5011149;28;20296;-61
2022/08/12 11:51:30;;;;;;;4.38;1.92;;;32.50;65.10;;;;;;5011397;28;20084;-61
2022/08/12 11:53:56;;;;;;;3.10;1.80;;;32.50;64.90;;;;;;5010827;28;20038;-62
2022/08/12 11:56:23;;;;;;;3.78;1.90;;;32.50;65.40;;;;;;5010047;28;20072;-62
2022/08/12 11:58:49;;;;;;;4.13;1.85;;;32.50;65.70;;;;;;4993366;28;20129;-62
2022/08/12 12:01:15;;;;;;;3.97;1.70;;;32.40;65.50;;;;;;5010828;28;20165;-62
2022/08/12 12:03:41;;;;;;;3.55;1.70;;;32.40;65.00;;;;;;5006686;28;20058;-62
2022/08/12 12:06:07;;;;;;;4.63;1.92;;;32.40;64.80;;;;;;5005002;28;20510;-63
2022/08/12 12:08:32;;;;;;;3.60;2.00;;;32.40;65.30;;;;;;5006341;28;20045;-63
2022/08/12 12:10:58;;;;;;;2.97;1.85;;;32.30;65.30;;;;;;5008448;28;20049;-62
2022/08/12 12:13:24;;;;;;;4.10;2.20;;;32.50;65.60;;;;;;5009763;28;20038;-63
2022/08/12 12:15:49;;;;;;;3.95;1.80;;;32.40;65.50;;;;;;5011055;28;20049;-64
2022/08/12 12:18:26;;;;;;;5.53;2.08;;;32.40;65.60;;;;;;5009887;28;20072;-62
2022/08/12 12:20:54;;;;;;;5.28;2.00;;;32.30;65.40;;;;;;5007558;28;20084;-63
2022/08/12 12:23:21;;;;;;;2.75;1.90;;;32.20;66.20;;;;;;5010812;28;20042;-61
2022/08/12 12:25:47;;;;;;;4.03;1.80;;;32.20;66.80;;;;;;5010885;28;20069;-62
2022/08/12 12:28:14;;;;;;;5.93;1.85;;;32.40;66.20;;;;;;5012030;28;20066;-62
2022/08/12 12:30:40;;;;;;;4.72;2.15;;;32.30;66.70;;;;;;5019580;28;20050;-62
2022/08/12 12:33:07;;;;;;;3.97;2.05;;;32.20;66.10;;;;;;5009528;28;20046;-63
2022/08/12 12:35:34;;;;;;;4.20;1.77;;;32.20;66.20;;;;;;5018857;28;20045;-60
2022/08/12 12:38:02;;;;;;;3.53;1.80;;;32.20;65.60;;;;;;5008563;28;20064;-61
2022/08/12 12:40:29;;;;;;;3.55;1.73;;;32.30;66.50;;;;;;5007622;28;20415;-61
2022/08/12 12:42:56;;;;;;;3.85;1.83;;;32.30;66.30;;;;;;5010179;28;20510;-61
2022/08/12 12:45:23;;;;;;;4.85;1.95;;;32.30;65.40;;;;;;5006429;28;20081;-60
2022/08/12 12:48:07;;;;;;;3.88;1.70;;;32.20;65.80;;;;;;5005358;28;20077;-59
2022/08/12 12:50:43;;;;;;;3.75;1.83;;;32.20;66.30;;;;;;5003028;28;20057;-60
2022/08/12 12:53:20;;;;;;;5.03;1.77;;;32.20;65.80;;;;;;4997688;28;20124;-60
2022/08/12 12:55:46;;;;;;;4.45;1.67;;;32.10;65.90;;;;;;4994514;28;20046;-60
2022/08/12 12:58:15;;;;;;;4.22;2.00;;;32.20;66.00;;;;;;4979075;28;20038;-61
2022/08/12 13:00:43;;;;;;;5.63;2.33;;;32.20;65.70;;;;;;5013987;28;20121;-60
2022/08/12 13:03:17;;;;;;;5.10;1.88;;;32.10;65.60;;;;;;4997748;28;20049;-60
2022/08/12 13:05:43;;;;;;;1.90;1.63;;;31.90;65.10;;;;;;5005205;28;20536;-60
2022/08/12 13:08:26;;;;;;;3.72;1.90;;;31.90;65.80;;;;;;4992689;28;20058;-60
2022/08/12 13:11:00;;;;;;;4.20;1.63;;;31.90;66.20;;;;;;4986662;28;20061;-61
2022/08/12 13:13:28;;;;;;;5.20;1.88;;;31.90;66.20;;;;;;5013532;28;20371;-60
2022/08/12 13:15:55;;;;;;;4.32;1.75;;;32.00;66.50;;;;;;5023809;28;20075;-60
2022/08/12 13:18:22;;;;;;;4.03;1.70;;;32.00;67.40;;;;;;5006641;28;20050;-60
2022/08/12 13:20:48;;;;;;;5.50;1.77;;;32.10;66.10;;;;;;4999074;28;20183;-61
2022/08/12 13:23:16;;;;;;;3.80;1.60;;;32.20;66.30;;;;;;5001066;28;20053;-60
2022/08/12 13:25:43;;;;;;;2.47;1.52;;;32.00;66.20;;;;;;5004519;28;20136;-60
2022/08/12 13:28:22;;;;;;;3.90;1.70;;;32.00;66.80;;;;;;5006967;28;20049;-60
2022/08/12 13:30:52;;;;;;;2.50;1.67;;;31.90;67.20;;;;;;5006598;28;20424;-61
2022/08/12 13:33:21;;;;;;;3.53;1.90;;;32.00;66.60;;;;;;5006385;28;20057;-60
2022/08/12 13:35:49;;;;;;;3.25;1.70;;;32.00;66.50;;;;;;5007427;28;20192;-61
2022/08/12 13:38:15;;;;;;;5.55;1.88;;;32.00;66.70;;;;;;5006555;28;20057;-61
2022/08/12 13:40:41;;;;;;;4.88;1.70;;;31.90;66.50;;;;;;5005602;28;20049;-61
2022/08/12 13:43:06;;;;;;;5.28;1.83;;;31.70;67.00;;;;;;4987862;28;20653;-60
2022/08/12 13:45:34;;;;;;;2.78;1.80;;;31.70;67.30;;;;;;5005802;28;20045;-60
2022/08/12 13:48:04;;;;;;;3.45;1.75;;;31.70;67.10;;;;;;5004332;28;20080;-62
2022/08/12 13:50:38;;;;;;;4.85;1.95;;;31.70;67.20;;;;;;5005792;28;20494;-61
2022/08/12 13:53:08;;;;;;;2.95;1.60;;;31.60;68.00;;;;;;5005859;28;20073;-61
2022/08/12 13:55:39;;;;;;;6.78;2.08;;;31.70;67.60;;;;;;5006773;28;20049;-61
2022/08/12 13:58:05;;;;;;;4.22;2.00;;;31.70;68.30;;;;;;5010471;28;20080;-63
2022/08/12 14:00:36;;;;;;;5.35;1.75;;;31.70;68.50;;;;;;5002333;28;20115;-61
2022/08/12 14:03:02;;;;;;;4.20;1.98;;;31.70;68.00;;;;;;5009418;28;20049;-64
2022/08/12 14:05:29;;;;;;;3.95;1.65;;;31.70;67.90;;;;;;5012095;28;20121;-63
2022/08/12 14:08:04;;;;;;;5.78;2.15;;;31.70;67.60;;;;;;5004686;28;20560;-62
2022/08/12 14:10:45;;;;;;;5.22;1.95;;;31.70;67.90;;;;;;5006827;28;20115;-61
2022/08/12 14:13:15;;;;;;;5.53;2.00;;;31.70;67.80;;;;;;5006042;28;20058;-60
2022/08/12 14:15:49;;;;;;;4.63;1.90;;;31.60;67.70;;;;;;5004684;28;20046;-61
2022/08/12 14:18:15;;;;;;;4.18;2.08;;;31.70;67.40;;;;;;5003398;28;20041;-60
2022/08/12 14:20:43;;;;;;;6.32;2.00;;;31.60;68.50;;;;;;5006094;28;20030;-61
2022/08/12 14:23:10;;;;;;;5.05;1.90;;;31.50;69.10;;;;;;5004826;28;20046;-61
2022/08/12 14:25:38;;;;;;;7.30;2.08;;;31.60;69.80;;;;;;5012554;28;20127;-62
2022/08/12 14:28:14;;;;;;;7.63;2.08;;;31.60;70.80;;;;;;4969903;28;20137;-64
2022/08/12 14:30:44;;;;;;;10.85;2.30;;;31.60;71.70;;;;;;5007419;28;20099;-61
2022/08/12 14:33:11;;;;;;;4.93;2.20;;;31.60;72.20;;;;;;5008598;28;20054;-62
2022/08/12 14:35:37;;;;;;;5.32;2.38;;;31.60;72.70;;;;;;5008538;28;20046;-62
2022/08/12 14:38:21;;;;;;;4.43;1.90;;;31.60;72.60;;;;;;5008511;28;20096;-62
2022/08/12 14:40:49;;;;;;;4.97;2.00;;;31.60;72.10;;;;;;5008773;28;20054;-62
2022/08/12 14:43:15;;;;;;;4.55;2.00;;;31.60;72.10;;;;;;5008946;28;20422;-62
2022/08/12 14:45:42;;;;;;;6.60;2.10;;;31.50;72.60;;;;;;5012236;28;20084;-62
2022/08/12 14:48:09;;;;;;;3.53;2.25;;;31.40;73.60;;;;;;5012456;28;20112;-63
2022/08/12 14:50:35;;;;;;;5.72;2.30;;;31.30;72.60;;;;;;5012679;28;20270;-61